createdAt,value
2019-02-05T00:08:35.181Z,970.4
2019-02-05T00:18:38.626Z,970.3
2019-02-05T00:28:42.086Z,970.5
2019-02-05T00:38:45.520Z,970.5
2019-02-05T00:48:48.959Z,970.4
2019-02-05T00:58:52.374Z,970.5
2019-02-05T01:08:55.845Z,970.5
2019-02-05T01:18:59.306Z,970.3
2019-02-05T01:29:02.779Z,970.2
2019-02-05T01:39:07.138Z,970.7
2019-02-05T01:49:10.867Z,970.6
2019-02-05T01:59:15.324Z,970.2
2019-02-05T02:09:18.752Z,970.5
2019-02-05T02:19:22.598Z,971
2019-02-05T02:29:26.030Z,970.8
2019-02-05T02:39:29.508Z,970.8
2019-02-05T02:49:32.974Z,970.9
2019-02-05T02:59:36.460Z,971.2
2019-02-05T03:09:39.905Z,971.1
2019-02-05T03:19:43.412Z,971.3
2019-02-05T03:29:47.079Z,971.1
2019-02-05T03:39:50.549Z,971.1
2019-02-05T03:49:54.033Z,971.2
2019-02-05T03:59:57.518Z,971.2
2019-02-05T04:10:00.985Z,971.2
2019-02-05T04:20:04.459Z,971.1
2019-02-05T04:30:07.930Z,971.3
2019-02-05T04:40:11.595Z,971.3
2019-02-05T04:50:15.069Z,971.6
2019-02-05T05:00:18.579Z,971.7
2019-02-05T05:10:22.065Z,971.5
2019-02-05T05:20:25.533Z,971.5
2019-02-05T05:30:28.997Z,971.7
2019-02-05T05:40:32.478Z,971.7
2019-02-05T05:50:35.965Z,971.7
2019-02-05T06:00:39.555Z,971.7
2019-02-05T06:10:43.044Z,972
2019-02-05T06:20:46.488Z,971.9
2019-02-05T06:30:50.258Z,972.4
2019-02-05T06:40:53.773Z,972.4
2019-02-05T06:50:57.343Z,972.5
2019-02-05T07:01:00.773Z,972.9
2019-02-05T07:11:04.287Z,973.1
2019-02-05T07:21:07.724Z,973.1
2019-02-05T07:31:11.168Z,973.3
2019-02-05T07:41:14.664Z,973.3
2019-02-05T07:51:18.161Z,973.2
2019-02-05T08:01:21.684Z,973.4
2019-02-05T08:11:25.176Z,973.9
2019-02-05T08:21:28.661Z,973.8
2019-02-05T08:31:32.178Z,973.9
2019-02-05T08:41:35.634Z,974
2019-02-05T08:51:39.097Z,973.7
2019-02-05T09:01:42.723Z,973.9
2019-02-05T09:11:46.229Z,973.6
2019-02-05T09:21:49.714Z,973.6
2019-02-05T09:31:53.236Z,973.5
2019-02-05T09:41:57.629Z,973.7
2019-02-05T09:52:01.378Z,973.3
2019-02-05T10:02:04.875Z,973.6
2019-02-05T10:12:08.351Z,973.9
2019-02-05T10:22:11.828Z,973.8
2019-02-05T10:32:15.297Z,974
2019-02-05T10:42:18.802Z,973.6
2019-02-05T10:52:22.300Z,973.5
2019-02-05T11:02:25.829Z,973.6
2019-02-05T11:12:29.343Z,973.3
2019-02-05T11:22:32.924Z,973.3
2019-02-05T11:32:36.398Z,973.4
2019-02-05T11:42:39.913Z,973.4
2019-02-05T11:52:44.656Z,972.7
2019-02-05T12:02:49.582Z,972.3
2019-02-05T12:12:53.108Z,972.7
2019-02-05T12:22:56.777Z,972.6
2019-02-05T12:33:02.452Z,972.4
2019-02-05T12:43:05.975Z,972.5
2019-02-05T12:53:09.477Z,973
2019-02-05T13:03:13.845Z,973
2019-02-05T13:13:18.893Z,972
2019-02-05T13:23:22.398Z,971.7
2019-02-05T13:33:25.854Z,971.7
2019-02-05T13:43:29.320Z,971.8
2019-02-05T13:53:32.819Z,971.8
2019-02-05T14:03:36.332Z,971.6
2019-02-05T14:13:39.794Z,971.9
2019-02-05T14:23:43.880Z,971.8
2019-02-05T14:33:47.440Z,971.4
2019-02-05T14:43:50.885Z,971.6
2019-02-05T14:53:54.302Z,971.9
2019-02-05T15:03:57.764Z,971.8
2019-02-05T15:14:01.182Z,971.6
2019-02-05T15:24:04.644Z,972.4
2019-02-05T15:34:08.092Z,972.5
2019-02-05T15:44:11.532Z,972.4
2019-02-05T15:54:15.011Z,972.3
2019-02-05T16:04:18.452Z,972.3
2019-02-05T16:14:21.928Z,972.4
2019-02-05T16:24:25.383Z,972.5
2019-02-05T16:34:28.863Z,972.4
2019-02-05T16:44:32.296Z,973
2019-02-05T16:54:35.714Z,973
2019-02-05T17:04:39.170Z,972.5
2019-02-05T17:14:43.651Z,973
2019-02-05T17:24:47.064Z,973.2
2019-02-05T17:34:50.500Z,973.1
2019-02-05T17:44:53.968Z,973.2
2019-02-05T17:54:57.466Z,973.2
2019-02-05T18:05:00.908Z,973.3
2019-02-05T18:15:04.379Z,973.4
2019-02-05T18:25:07.844Z,973.3
2019-02-05T18:35:11.302Z,973.4
2019-02-05T18:45:14.782Z,973.4
2019-02-05T18:55:18.219Z,973.7
2019-02-05T19:05:21.700Z,973.6
2019-02-05T19:15:25.195Z,973.3
2019-02-05T19:25:28.612Z,973.7
2019-02-05T19:35:32.051Z,973.6
2019-02-05T19:45:35.463Z,973.6
2019-02-05T19:55:38.904Z,973.7
2019-02-05T20:05:42.331Z,973.7
2019-02-05T20:15:46.692Z,973.6
2019-02-05T20:25:50.491Z,973.6
2019-02-05T20:35:53.945Z,973.6
2019-02-05T20:45:57.402Z,973.6
2019-02-05T20:56:00.877Z,973.7
2019-02-05T21:06:04.355Z,974
2019-02-05T21:16:07.803Z,973.7
2019-02-05T21:26:11.272Z,973.8
2019-02-05T21:36:14.743Z,973.8
2019-02-05T21:46:18.221Z,974.2
2019-02-05T21:56:22.122Z,973.9
2019-02-05T22:06:25.744Z,973.8
2019-02-05T22:16:29.246Z,974.1
2019-02-05T22:26:33.397Z,973.9
2019-02-05T22:36:37.124Z,974
2019-02-05T22:46:40.650Z,974.4
2019-02-05T22:56:44.906Z,974
2019-02-05T23:06:48.694Z,974.1
2019-02-05T23:16:53.014Z,973.8
2019-02-05T23:26:56.605Z,974.1
2019-02-05T23:37:00.056Z,974
2019-02-05T23:47:03.551Z,973.8
2019-02-05T23:57:10.854Z,974
